Time;durP1;ratioP1;P1;durP2;ratioP2;P2;SDS_P1;SDS_P2;PMS_P1;PMS_P2;Temp;Humidity;BMP_temperature;BMP_pressure;BME280_temperature;BME280_humidity;BME280_pressure;Samples;Min_cycle;Max_cycle;Signal;HPM_P1;HPM_P2
2022/12/10 15:30:47;;;;;;;76.47;35.40;;;;;;;-0.87;100.00;101038.16;5262976;28;20374;-78
2022/12/10 15:33:24;;;;;;;80.60;35.92;;;;;;;-0.88;100.00;101039.03;5261057;28;20298;-72
2022/12/10 15:35:58;;;;;;;88.60;33.17;;;;;;;-0.90;100.00;101045.91;5263949;28;20036;-73
2022/12/10 15:38:30;;;;;;;85.22;35.95;;;;;;;-0.93;100.00;101033.06;5263921;28;20040;-74
2022/12/10 15:41:40;;;;;;;82.43;33.57;;;;;;;-0.82;100.00;101041.53;5263600;28;20067;-73
2022/12/10 15:44:29;;;;;;;78.60;34.00;;;;;;;-0.73;100.00;101050.88;5258568;28;20067;-74
2022/12/10 15:47:12;;;;;;;72.80;31.37;;;;;;;-0.73;100.00;101056.91;5263012;28;20027;-73
2022/12/10 15:49:44;;;;;;;77.43;35.43;;;;;;;-0.77;100.00;101052.63;5260439;28;20025;-75
2022/12/10 15:52:20;;;;;;;91.80;37.60;;;;;;;-0.75;100.00;101050.91;5265138;28;20033;-74
2022/12/10 15:54:53;;;;;;;85.90;34.67;;;;;;;-0.75;100.00;101044.94;5261923;28;20458;-72
2022/12/10 15:57:25;;;;;;;74.53;33.50;;;;;;;-0.67;100.00;101052.56;5260680;28;20574;-73
2022/12/10 16:00:00;;;;;;;84.00;35.93;;;;;;;-0.66;100.00;101054.25;5259747;28;20060;-75
2022/12/10 16:02:46;;;;;;;80.75;35.83;;;;;;;-0.63;100.00;101041.38;5258251;28;20464;-73
2022/12/10 16:05:29;;;;;;;80.67;37.20;;;;;;;-0.68;100.00;101045.72;5260948;28;20466;-71
2022/12/10 16:08:09;;;;;;;75.83;35.33;;;;;;;-0.66;100.00;101044.81;5258347;28;20025;-74
2022/12/10 16:10:41;;;;;;;78.20;34.40;;;;;;;-0.71;100.00;101050.88;5260571;28;20351;-74
2022/12/10 16:13:22;;;;;;;73.67;35.07;;;;;;;-0.67;100.00;101042.28;5258327;28;20033;-74
2022/12/10 16:15:58;;;;;;;71.10;32.40;;;;;;;-0.69;100.00;101049.16;5261867;28;20028;-76
2022/12/10 16:18:29;;;;;;;74.43;33.67;;;;;;;-0.57;100.00;101056.75;5260168;28;20533;-74
2022/12/10 16:21:01;;;;;;;75.47;36.37;;;;;;;-0.56;100.00;101049.91;5260237;28;20013;-75
2022/12/10 16:23:33;;;;;;;67.57;32.60;;;;;;;-0.55;100.00;101049.00;5261342;28;20143;-73
2022/12/10 16:26:13;;;;;;;68.17;33.40;;;;;;;-0.56;100.00;101047.31;5260917;28;20071;-75
2022/12/10 16:28:46;;;;;;;71.37;33.70;;;;;;;-0.58;100.00;101041.34;5260792;28;20103;-72
2022/12/10 16:31:21;;;;;;;76.00;32.67;;;;;;;-0.57;100.00;101043.03;5260064;28;20155;-72
2022/12/10 16:33:52;;;;;;;78.78;35.10;;;;;;;-0.55;100.00;101037.00;5258849;28;20035;-73
2022/12/10 16:36:23;;;;;;;75.67;34.33;;;;;;;-0.50;100.00;101040.38;5258976;28;20028;-73
2022/12/10 16:38:55;;;;;;;74.37;35.30;;;;;;;-0.58;100.00;101031.91;5260134;28;20178;-73
2022/12/10 16:41:28;;;;;;;80.50;34.33;;;;;;;-0.51;100.00;101061.81;5246051;28;20661;-73
2022/12/10 16:43:59;;;;;;;73.73;34.47;;;;;;;-0.67;100.00;101031.97;5244583;28;20040;-72
2022/12/10 16:46:31;;;;;;;74.40;33.03;;;;;;;-0.59;100.00;101049.94;5247618;28;20036;-73
2022/12/10 16:49:03;;;;;;;69.83;34.27;;;;;;;-0.54;100.00;101053.31;5246000;28;20123;-73
2022/12/10 16:51:35;;;;;;;68.13;32.33;;;;;;;-0.46;100.00;101061.78;5241980;28;20102;-70
2022/12/10 16:54:08;;;;;;;76.90;31.23;;;;;;;-0.51;100.00;101048.97;5245216;28;20116;-71
2022/12/10 16:56:41;;;;;;;70.20;33.00;;;;;;;-0.57;100.00;101043.03;5246426;28;20032;-72
2022/12/10 16:59:13;;;;;;;74.80;34.63;;;;;;;-0.55;100.00;101067.88;5244917;28;20361;-72
2022/12/10 17:01:44;;;;;;;89.70;34.30;;;;;;;-0.55;100.00;101067.88;5244659;28;20036;-70
2022/12/10 17:04:15;;;;;;;68.83;32.87;;;;;;;-0.55;100.00;101059.31;5243069;28;20033;-72
2022/12/10 17:06:47;;;;;;;74.70;32.93;;;;;;;-0.54;100.00;101067.00;5245976;28;20029;-71
2022/12/10 17:09:18;;;;;;;78.37;35.83;;;;;;;-0.49;100.00;101066.97;5244739;28;20059;-72
2022/12/10 17:11:50;;;;;;;67.90;34.00;;;;;;;-0.62;100.00;101050.81;5246458;28;20033;-72
2022/12/10 17:14:27;;;;;;;74.77;35.20;;;;;;;-0.51;100.00;101061.81;5245608;28;20056;-72
2022/12/10 17:17:00;;;;;;;69.30;34.20;;;;;;;-0.52;100.00;101067.84;5245392;28;20048;-78
2022/12/10 17:19:37;;;;;;;77.93;35.20;;;;;;;-0.51;100.00;101074.69;5247125;28;20459;-79
2022/12/10 17:22:09;;;;;;;64.47;31.73;;;;;;;-0.52;100.00;101078.13;5246424;28;20055;-74
2022/12/10 17:24:41;;;;;;;73.03;34.80;;;;;;;-0.54;100.00;101077.28;5248223;28;20029;-77
2022/12/10 17:27:15;;;;;;;61.90;30.40;;;;;;;-0.51;100.00;101072.13;5247031;28;20051;-74
2022/12/10 17:29:53;;;;;;;68.30;32.25;;;;;;;-0.45;100.00;101088.38;5248536;28;20107;-77
2022/12/10 17:32:24;;;;;;;75.73;34.47;;;;;;;-0.48;100.00;101078.97;5243649;28;20118;-77
2022/12/10 17:34:56;;;;;;;76.70;37.40;;;;;;;-0.44;100.00;101085.81;5242435;28;20059;-73
2022/12/10 17:37:31;;;;;;;76.03;34.57;;;;;;;-0.45;100.00;101083.22;5242313;28;20033;-73
2022/12/10 17:40:17;;;;;;;74.67;33.67;;;;;;;-0.41;100.00;101077.19;5234897;28;20151;-73
2022/12/10 17:42:49;;;;;;;71.77;30.70;;;;;;;-0.36;100.00;101078.00;5235986;28;20033;-74
2022/12/10 17:45:21;;;;;;;71.13;32.97;;;;;;;-0.39;100.00;101078.03;5246183;28;20075;-80
2022/12/10 17:47:52;;;;;;;74.20;35.90;;;;;;;-0.40;100.00;101071.19;5234385;28;20411;-72
2022/12/10 17:50:32;;;;;;;78.77;36.80;;;;;;;-0.29;100.00;101078.78;5237083;28;20030;-75
2022/12/10 17:53:09;;;;;;;78.87;35.63;;;;;;;-0.33;100.00;101067.66;5235073;28;20476;-78
2022/12/10 17:55:41;;;;;;;78.73;36.07;;;;;;;-0.31;100.00;101076.22;5245220;28;20055;-73
2022/12/10 17:58:13;;;;;;;78.07;37.70;;;;;;;-0.32;100.00;101073.66;5252933;28;20124;-73
2022/12/10 18:00:44;;;;;;;80.87;34.50;;;;;;;-0.26;100.00;101078.72;5243049;28;20132;-72
2022/12/10 18:03:16;;;;;;;72.93;33.30;;;;;;;-0.29;100.00;101083.91;5252011;28;20049;-72
2022/12/10 18:05:47;;;;;;;78.33;34.63;;;;;;;-0.38;100.00;101062.56;5247992;28;20026;-71
2022/12/10 18:08:22;;;;;;;77.80;34.17;;;;;;;-0.30;100.00;101085.66;5237454;28;20499;-72
2022/12/10 18:10:54;;;;;;;78.97;36.60;;;;;;;-0.27;100.00;101074.47;5253422;28;20428;-73
2022/12/10 18:13:25;;;;;;;79.13;37.60;;;;;;;-0.31;100.00;101076.22;5256605;28;20027;-73
2022/12/10 18:15:57;;;;;;;82.73;37.13;;;;;;;-0.36;100.00;101075.41;5256682;28;20029;-72
2022/12/10 18:18:28;;;;;;;86.73;37.43;;;;;;;-0.31;100.00;101060.78;5256953;28;20051;-74
2022/12/10 18:20:59;;;;;;;80.23;34.73;;;;;;;-0.23;100.00;101083.88;5256591;28;20021;-74
2022/12/10 18:23:30;;;;;;;81.73;36.07;;;;;;;-0.18;100.00;101086.38;5256499;28;20472;-75
2022/12/10 18:26:02;;;;;;;85.47;36.40;;;;;;;-0.20;100.00;101083.84;5259043;28;21751;-71
2022/12/10 18:28:37;;;;;;;83.23;39.27;;;;;;;-0.15;100.00;101082.06;5248675;28;20069;-69
2022/12/10 18:31:13;;;;;;;83.75;39.28;;;;;;;-0.09;100.00;101081.16;5238623;28;20538;-73
2022/12/10 18:33:48;;;;;;;94.03;38.93;;;;;;;-0.22;100.00;101072.69;5238178;28;20441;-71
2022/12/10 18:36:23;;;;;;;93.40;41.27;;;;;;;-0.15;100.00;101081.19;5242877;28;20029;-73
2022/12/10 18:39:00;;;;;;;88.40;38.47;;;;;;;-0.15;100.00;101081.19;5248893;28;20029;-71
2022/12/10 18:41:34;;;;;;;86.23;38.63;;;;;;;-0.15;100.00;101082.06;5248810;28;20108;-76
2022/12/10 18:44:05;;;;;;;93.80;41.42;;;;;;;-0.15;100.00;101081.19;5235622;28;20068;-76
2022/12/10 18:46:38;;;;;;;88.93;39.87;;;;;;;-0.14;100.00;101085.50;5240225;28;20116;-74
2022/12/10 18:49:11;;;;;;;91.83;41.23;;;;;;;-0.13;100.00;101082.91;5241710;28;20072;-75
2022/12/10 18:51:43;;;;;;;91.77;37.87;;;;;;;-0.19;100.00;101087.28;5251920;28;20488;-78
2022/12/10 18:54:15;;;;;;;99.60;43.53;;;;;;;-0.16;100.00;101082.91;5242670;28;20087;-76
2022/12/10 18:56:46;;;;;;;87.10;40.67;;;;;;;-0.12;100.00;101081.16;5244504;28;20033;-73
2022/12/10 18:59:18;;;;;;;89.73;41.20;;;;;;;-0.08;100.00;101089.69;5244874;28;20037;-76
2022/12/10 19:01:49;;;;;;;92.57;43.50;;;;;;;-0.12;100.00;101076.00;5244215;28;20057;-74
2022/12/10 19:04:20;;;;;;;78.07;37.30;;;;;;;-0.07;100.00;101094.84;5245684;28;20079;-74
2022/12/10 19:06:52;;;;;;;88.33;41.60;;;;;;;-0.07;100.00;101094.00;5236049;28;20408;-73
2022/12/10 19:09:23;;;;;;;85.40;38.17;;;;;;;-0.11;100.00;101090.59;5243835;28;20028;-73
2022/12/10 19:11:55;;;;;;;83.23;40.37;;;;;;;-0.07;100.00;101092.25;5235375;28;20119;-73
2022/12/10 19:14:26;;;;;;;79.47;37.47;;;;;;;-0.03;100.00;101098.22;5239931;28;20021;-75
2022/12/10 19:16:59;;;;;;;80.30;35.17;;;;;;;-0.02;100.00;101098.22;5240247;28;20033;-74
2022/12/10 19:19:31;;;;;;;77.10;36.77;;;;;;;-0.02;100.00;101087.91;5245836;28;20023;-76
2022/12/10 19:22:02;;;;;;;76.10;34.80;;;;;;;-0.02;100.00;101087.91;5245592;28;20029;-76
2022/12/10 19:24:34;;;;;;;73.63;38.30;;;;;;;-0.04;100.00;101079.38;5253396;28;20025;-70
2022/12/10 19:27:09;;;;;;;73.50;36.10;;;;;;;0.01;100.00;101087.03;5246919;28;20635;-72
2022/12/10 19:29:41;;;;;;;70.30;34.57;;;;;;;0.04;100.00;101080.97;5245718;28;20033;-75
2022/12/10 19:32:12;;;;;;;69.03;33.83;;;;;;;0.08;100.00;101090.38;5242505;28;20116;-75
2022/12/10 19:34:43;;;;;;;74.43;37.23;;;;;;;0.02;100.00;101077.59;5246202;28;20033;-74
2022/12/10 19:37:15;;;;;;;64.17;31.73;;;;;;;0.04;100.00;101078.41;5242207;28;20025;-73
2022/12/10 19:39:46;;;;;;;59.20;28.83;;;;;;;-0.03;100.00;101059.59;5243182;28;20440;-73
2022/12/10 19:42:17;;;;;;;50.27;27.73;;;;;;;0.05;100.00;101062.97;5232272;28;20029;-74
2022/12/10 19:44:49;;;;;;;56.07;28.67;;;;;;;0.10;100.00;101070.63;5236645;28;20083;-72
2022/12/10 19:47:20;;;;;;;55.80;28.77;;;;;;;0.09;100.00;101066.31;5238810;28;20116;-72
2022/12/10 19:49:52;;;;;;;60.90;31.60;;;;;;;0.18;100.00;101075.66;5246715;28;20071;-75
2022/12/10 19:52:23;;;;;;;63.17;32.63;;;;;;;0.19;100.00;101067.91;5234620;28;20029;-74
2022/12/10 19:54:55;;;;;;;67.37;31.23;;;;;;;0.21;100.00;101073.91;5240396;28;20021;-74
2022/12/10 19:57:26;;;;;;;58.17;30.20;;;;;;;0.21;100.00;101070.50;5232642;28;20018;-71
2022/12/10 19:59:58;;;;;;;67.07;32.40;;;;;;;0.28;100.00;101073.84;5237512;28;20399;-73
2022/12/10 20:02:30;;;;;;;73.47;35.50;;;;;;;0.21;100.00;101068.75;5241305;28;20021;-72
2022/12/10 20:05:01;;;;;;;69.07;34.63;;;;;;;0.13;100.00;101080.88;5247595;28;20055;-72
2022/12/10 20:07:33;;;;;;;73.40;36.87;;;;;;;0.09;100.00;101069.75;5243213;28;20024;-75
2022/12/10 20:10:05;;;;;;;108.40;46.60;;;;;;;0.20;100.00;101081.66;5234779;28;20034;-73
2022/12/10 20:12:37;;;;;;;93.10;45.20;;;;;;;0.05;100.00;101062.09;5242504;28;20033;-76
2022/12/10 20:15:08;;;;;;;87.27;44.03;;;;;;;0.12;100.00;101068.88;5233885;28;20817;-73
2022/12/10 20:17:40;;;;;;;77.07;39.13;;;;;;;0.16;100.00;101070.53;5266967;28;20025;-76
2022/12/10 20:20:31;;;;;;;75.97;38.30;;;;;;;0.18;100.00;101065.34;5244346;28;20140;-71
2022/12/10 20:23:03;;;;;;;70.37;34.90;;;;;;;0.04;100.00;101070.69;5243387;28;20041;-72
2022/12/10 20:25:36;;;;;;;69.77;34.30;;;;;;;0.01;100.00;101073.31;5241069;28;20025;-72
2022/12/10 20:28:09;;;;;;;73.47;36.30;;;;;;;0.15;100.00;101075.72;5247653;28;20106;-73
2022/12/10 20:30:41;;;;;;;78.93;37.10;;;;;;;0.04;100.00;101070.69;5245787;28;20025;-70
2022/12/10 20:33:12;;;;;;;74.07;37.63;;;;;;;0.06;100.00;101081.81;5247483;28;20051;-72
2022/12/10 20:35:44;;;;;;;67.07;34.57;;;;;;;0.09;100.00;101077.50;5246823;28;20103;-72
2022/12/10 20:38:16;;;;;;;81.50;39.57;;;;;;;0.15;100.00;101083.44;5248094;28;21007;-76
2022/12/10 20:40:47;;;;;;;78.33;36.20;;;;;;;0.12;100.00;101074.03;5246301;28;20029;-73
2022/12/10 20:43:18;;;;;;;79.80;34.10;;;;;;;0.20;100.00;101085.09;5248090;28;20036;-73
2022/12/10 20:45:50;;;;;;;80.47;36.10;;;;;;;0.21;100.00;101089.34;5245625;28;20055;-71
2022/12/10 20:48:21;;;;;;;80.97;35.80;;;;;;;0.13;100.00;101087.75;5244548;28;20076;-74
2022/12/10 20:50:52;;;;;;;80.83;38.63;;;;;;;0.14;100.00;101086.91;5246110;28;20023;-72
2022/12/10 20:53:24;;;;;;;83.17;38.50;;;;;;;0.10;100.00;101091.22;5245166;28;20083;-75
2022/12/10 20:55:55;;;;;;;83.33;38.27;;;;;;;0.17;100.00;101082.56;5244402;28;20021;-73
2022/12/10 20:58:27;;;;;;;77.03;33.73;;;;;;;0.17;100.00;101086.84;5247512;28;20059;-73
2022/12/10 21:00:58;;;;;;;82.90;36.87;;;;;;;0.24;100.00;101084.16;5246306;28;20512;-73
2022/12/10 21:03:29;;;;;;;80.33;35.77;;;;;;;0.27;100.00;101087.56;5245994;28;20082;-76
2022/12/10 21:06:01;;;;;;;84.07;37.90;;;;;;;0.23;100.00;101086.75;5246125;28;20090;-71
2022/12/10 21:08:32;;;;;;;87.97;37.63;;;;;;;0.32;100.00;101081.50;5245595;28;20403;-74
2022/12/10 21:11:04;;;;;;;77.37;34.17;;;;;;;0.23;100.00;101082.47;5245084;28;20108;-76
2022/12/10 21:13:35;;;;;;;87.93;36.20;;;;;;;0.26;100.00;101075.59;5243542;28;20033;-72
2022/12/10 21:16:11;;;;;;;92.13;38.30;;;;;;;0.20;100.00;101082.50;5242041;28;20029;-74
2022/12/10 21:18:43;;;;;;;80.07;37.20;;;;;;;0.17;100.00;101079.97;5244659;28;20075;-71
2022/12/10 21:21:15;;;;;;;85.57;38.10;;;;;;;0.24;100.00;101093.63;5245174;28;20488;-72
2022/12/10 21:23:46;;;;;;;90.60;37.47;;;;;;;0.23;100.00;101095.34;5246037;28;20480;-71
2022/12/10 21:26:18;;;;;;;91.60;39.10;;;;;;;0.07;100.00;101080.97;5244163;28;20503;-73
2022/12/10 21:28:49;;;;;;;86.90;38.17;;;;;;;0.22;100.00;101090.22;5244559;28;20056;-71
2022/12/10 21:31:23;;;;;;;84.13;40.17;;;;;;;0.26;100.00;101086.75;5242731;28;20036;-73
2022/12/10 21:33:54;;;;;;;86.93;39.95;;;;;;;0.31;100.00;101094.41;5242632;28;20112;-72
2022/12/10 21:36:26;;;;;;;78.93;35.97;;;;;;;0.28;100.00;101089.31;5247205;28;20055;-74
2022/12/10 21:38:58;;;;;;;89.67;39.50;;;;;;;0.32;100.00;101084.06;5246166;28;20090;-74
2022/12/10 21:44:19;;;;;;;75.27;36.33;;;;;;;0.34;100.00;101076.31;5246741;28;20068;-71
2022/12/10 21:46:50;;;;;;;72.70;34.00;;;;;;;0.31;100.00;101078.94;5244104;28;20116;-72
2022/12/10 21:49:22;;;;;;;70.90;34.27;;;;;;;0.34;100.00;101068.59;5244013;28;20037;-73
2022/12/10 21:51:53;;;;;;;68.77;33.13;;;;;;;0.33;100.00;101078.03;5243896;28;20029;-72
2022/12/10 21:54:24;;;;;;;76.77;36.27;;;;;;;0.33;100.00;101077.22;5244997;28;20037;-72
2022/12/10 21:56:55;;;;;;;66.43;34.13;;;;;;;0.26;100.00;101076.44;5243728;28;20128;-73
2022/12/10 21:59:27;;;;;;;71.97;34.43;;;;;;;0.25;100.00;101067.00;5243425;28;20040;-72
2022/12/10 22:01:58;;;;;;;77.43;36.07;;;;;;;0.31;100.00;101066.06;5244107;28;20029;-72
2022/12/10 22:04:29;;;;;;;75.47;39.37;;;;;;;0.36;100.00;101077.16;5244787;28;20044;-73
2022/12/10 22:07:01;;;;;;;76.70;35.57;;;;;;;0.39;100.00;101071.97;5242147;28;20052;-73
2022/12/10 22:09:32;;;;;;;65.30;32.60;;;;;;;0.33;100.00;101072.06;5244229;28;20642;-72
2022/12/10 22:12:04;;;;;;;63.13;34.27;;;;;;;0.29;100.00;101065.22;5244665;28;20040;-71
